sensor_id;sensor_type;location;lat;lon;timestamp;P1;durP1;ratioP1;P2;durP2;ratioP2
24635;SDS011;12772;49.794;10.024;2022-12-18T00:00:41;25.63;;;16.20;;
24635;SDS011;12772;49.794;10.024;2022-12-18T00:04:43;27.13;;;17.47;;
24635;SDS011;12772;49.794;10.024;2022-12-18T00:08:46;25.53;;;16.57;;
24635;SDS011;12772;49.794;10.024;2022-12-18T00:12:48;20.67;;;14.03;;
24635;SDS011;12772;49.794;10.024;2022-12-18T00:16:51;18.97;;;14.47;;
24635;SDS011;12772;49.794;10.024;2022-12-18T00:20:53;19.43;;;13.90;;
24635;SDS011;12772;49.794;10.024;2022-12-18T00:24:55;21.97;;;14.60;;
24635;SDS011;12772;49.794;10.024;2022-12-18T00:29:00;19.20;;;13.53;;
24635;SDS011;12772;49.794;10.024;2022-12-18T00:33:14;18.70;;;13.13;;
24635;SDS011;12772;49.794;10.024;2022-12-18T00:37:16;19.60;;;13.50;;
24635;SDS011;12772;49.794;10.024;2022-12-18T00:41:18;21.27;;;13.00;;
24635;SDS011;12772;49.794;10.024;2022-12-18T00:45:34;23.13;;;14.97;;
24635;SDS011;12772;49.794;10.024;2022-12-18T00:49:36;26.93;;;15.73;;
24635;SDS011;12772;49.794;10.024;2022-12-18T00:53:38;21.83;;;14.10;;
24635;SDS011;12772;49.794;10.024;2022-12-18T00:57:41;22.53;;;13.63;;
24635;SDS011;12772;49.794;10.024;2022-12-18T01:01:43;21.23;;;13.83;;
24635;SDS011;12772;49.794;10.024;2022-12-18T01:05:47;25.00;;;15.87;;
24635;SDS011;12772;49.794;10.024;2022-12-18T01:09:49;21.83;;;14.57;;
24635;SDS011;12772;49.794;10.024;2022-12-18T01:13:51;21.67;;;14.90;;
24635;SDS011;12772;49.794;10.024;2022-12-18T01:17:55;24.50;;;14.93;;
24635;SDS011;12772;49.794;10.024;2022-12-18T01:21:57;20.37;;;15.27;;
24635;SDS011;12772;49.794;10.024;2022-12-18T01:26:03;22.73;;;14.17;;
24635;SDS011;12772;49.794;10.024;2022-12-18T01:30:10;19.17;;;14.00;;
24635;SDS011;12772;49.794;10.024;2022-12-18T01:34:12;21.93;;;14.33;;
24635;SDS011;12772;49.794;10.024;2022-12-18T01:38:14;18.73;;;13.53;;
24635;SDS011;12772;49.794;10.024;2022-12-18T01:42:16;22.20;;;14.57;;
24635;SDS011;12772;49.794;10.024;2022-12-18T01:46:20;17.17;;;12.37;;
24635;SDS011;12772;49.794;10.024;2022-12-18T01:50:25;21.27;;;13.53;;
24635;SDS011;12772;49.794;10.024;2022-12-18T01:54:34;19.63;;;13.47;;
24635;SDS011;12772;49.794;10.024;2022-12-18T02:02:46;25.77;;;15.17;;
24635;SDS011;12772;49.794;10.024;2022-12-18T02:06:50;23.63;;;15.07;;
24635;SDS011;12772;49.794;10.024;2022-12-18T02:11:16;23.53;;;13.27;;
24635;SDS011;12772;49.794;10.024;2022-12-18T02:15:27;23.10;;;13.33;;
24635;SDS011;12772;49.794;10.024;2022-12-18T02:24:35;20.50;;;12.73;;
24635;SDS011;12772;49.794;10.024;2022-12-18T02:28:53;20.47;;;13.50;;
24635;SDS011;12772;49.794;10.024;2022-12-18T02:33:05;19.47;;;12.77;;
24635;SDS011;12772;49.794;10.024;2022-12-18T02:37:10;21.23;;;13.00;;
24635;SDS011;12772;49.794;10.024;2022-12-18T02:41:16;23.63;;;13.63;;
24635;SDS011;12772;49.794;10.024;2022-12-18T02:45:19;20.37;;;12.97;;
24635;SDS011;12772;49.794;10.024;2022-12-18T02:53:57;21.43;;;13.60;;
24635;SDS011;12772;49.794;10.024;2022-12-18T03:03:11;20.97;;;13.83;;
24635;SDS011;12772;49.794;10.024;2022-12-18T03:07:09;23.40;;;15.03;;
24635;SDS011;12772;49.794;10.024;2022-12-18T03:11:17;23.30;;;14.90;;
24635;SDS011;12772;49.794;10.024;2022-12-18T03:15:44;23.57;;;13.93;;
24635;SDS011;12772;49.794;10.024;2022-12-18T03:19:49;25.93;;;14.80;;
24635;SDS011;12772;49.794;10.024;2022-12-18T03:23:53;19.53;;;12.73;;
24635;SDS011;12772;49.794;10.024;2022-12-18T03:27:58;24.17;;;14.00;;
24635;SDS011;12772;49.794;10.024;2022-12-18T03:32:04;22.17;;;14.70;;
24635;SDS011;12772;49.794;10.024;2022-12-18T03:36:12;20.50;;;13.77;;
24635;SDS011;12772;49.794;10.024;2022-12-18T03:40:14;25.83;;;14.57;;
24635;SDS011;12772;49.794;10.024;2022-12-18T03:48:27;21.43;;;12.70;;
24635;SDS011;12772;49.794;10.024;2022-12-18T03:52:46;22.20;;;14.13;;
24635;SDS011;12772;49.794;10.024;2022-12-18T03:56:55;26.47;;;15.13;;
24635;SDS011;12772;49.794;10.024;2022-12-18T04:01:02;20.93;;;13.73;;
24635;SDS011;12772;49.794;10.024;2022-12-18T04:05:06;24.40;;;14.53;;
24635;SDS011;12772;49.794;10.024;2022-12-18T04:09:11;24.00;;;14.47;;
24635;SDS011;12772;49.794;10.024;2022-12-18T04:13:21;23.50;;;14.00;;
24635;SDS011;12772;49.794;10.024;2022-12-18T04:17:29;23.80;;;14.83;;
24635;SDS011;12772;49.794;10.024;2022-12-18T04:21:32;23.20;;;14.40;;
24635;SDS011;12772;49.794;10.024;2022-12-18T04:25:34;23.57;;;14.87;;
24635;SDS011;12772;49.794;10.024;2022-12-18T04:29:36;26.07;;;14.87;;
24635;SDS011;12772;49.794;10.024;2022-12-18T04:33:38;22.80;;;13.13;;
24635;SDS011;12772;49.794;10.024;2022-12-18T04:37:40;25.87;;;15.67;;
24635;SDS011;12772;49.794;10.024;2022-12-18T04:41:42;30.10;;;15.60;;
24635;SDS011;12772;49.794;10.024;2022-12-18T04:45:44;26.33;;;14.77;;
24635;SDS011;12772;49.794;10.024;2022-12-18T04:49:46;19.63;;;13.37;;
24635;SDS011;12772;49.794;10.024;2022-12-18T04:53:48;24.37;;;14.23;;
24635;SDS011;12772;49.794;10.024;2022-12-18T04:57:50;20.03;;;13.23;;
24635;SDS011;12772;49.794;10.024;2022-12-18T05:01:52;23.33;;;14.30;;
24635;SDS011;12772;49.794;10.024;2022-12-18T05:05:54;26.50;;;15.07;;
24635;SDS011;12772;49.794;10.024;2022-12-18T05:09:57;22.43;;;13.53;;
24635;SDS011;12772;49.794;10.024;2022-12-18T05:13:59;24.07;;;14.23;;
24635;SDS011;12772;49.794;10.024;2022-12-18T05:18:01;22.60;;;13.80;;
24635;SDS011;12772;49.794;10.024;2022-12-18T05:22:05;25.60;;;15.77;;
24635;SDS011;12772;49.794;10.024;2022-12-18T05:26:08;22.43;;;14.37;;
24635;SDS011;12772;49.794;10.024;2022-12-18T05:30:18;26.57;;;15.63;;
24635;SDS011;12772;49.794;10.024;2022-12-18T05:34:20;21.23;;;14.57;;
24635;SDS011;12772;49.794;10.024;2022-12-18T05:38:23;23.77;;;14.70;;
24635;SDS011;12772;49.794;10.024;2022-12-18T05:42:26;25.87;;;13.07;;
24635;SDS011;12772;49.794;10.024;2022-12-18T05:46:28;23.93;;;14.73;;
24635;SDS011;12772;49.794;10.024;2022-12-18T05:50:30;25.00;;;15.43;;
24635;SDS011;12772;49.794;10.024;2022-12-18T05:54:36;27.67;;;16.90;;
24635;SDS011;12772;49.794;10.024;2022-12-18T05:58:38;25.93;;;15.80;;
24635;SDS011;12772;49.794;10.024;2022-12-18T06:02:40;26.50;;;15.10;;
24635;SDS011;12772;49.794;10.024;2022-12-18T06:06:42;33.40;;;17.43;;
24635;SDS011;12772;49.794;10.024;2022-12-18T06:10:49;30.57;;;16.07;;
24635;SDS011;12772;49.794;10.024;2022-12-18T06:14:51;35.03;;;16.53;;
24635;SDS011;12772;49.794;10.024;2022-12-18T06:18:59;37.50;;;18.57;;
24635;SDS011;12772;49.794;10.024;2022-12-18T06:23:03;35.63;;;18.03;;
24635;SDS011;12772;49.794;10.024;2022-12-18T06:27:05;38.47;;;18.77;;
24635;SDS011;12772;49.794;10.024;2022-12-18T06:31:07;35.90;;;17.93;;
24635;SDS011;12772;49.794;10.024;2022-12-18T06:35:10;29.47;;;17.07;;
24635;SDS011;12772;49.794;10.024;2022-12-18T06:39:12;36.23;;;18.03;;
24635;SDS011;12772;49.794;10.024;2022-12-18T06:43:14;31.53;;;17.23;;
24635;SDS011;12772;49.794;10.024;2022-12-18T06:47:16;34.00;;;17.83;;
24635;SDS011;12772;49.794;10.024;2022-12-18T06:51:19;31.10;;;18.43;;
24635;SDS011;12772;49.794;10.024;2022-12-18T06:55:22;28.77;;;16.50;;
24635;SDS011;12772;49.794;10.024;2022-12-18T06:59:24;32.73;;;17.00;;
24635;SDS011;12772;49.794;10.024;2022-12-18T07:03:26;37.37;;;20.17;;
24635;SDS011;12772;49.794;10.024;2022-12-18T07:07:28;31.60;;;18.47;;
24635;SDS011;12772;49.794;10.024;2022-12-18T07:11:32;33.37;;;18.10;;
24635;SDS011;12772;49.794;10.024;2022-12-18T07:15:34;30.40;;;18.80;;
24635;SDS011;12772;49.794;10.024;2022-12-18T07:19:36;34.00;;;18.03;;
24635;SDS011;12772;49.794;10.024;2022-12-18T07:23:38;30.93;;;16.23;;
24635;SDS011;12772;49.794;10.024;2022-12-18T07:27:40;30.17;;;16.60;;
24635;SDS011;12772;49.794;10.024;2022-12-18T07:31:42;31.00;;;17.00;;
24635;SDS011;12772;49.794;10.024;2022-12-18T07:35:45;31.97;;;19.03;;
24635;SDS011;12772;49.794;10.024;2022-12-18T07:39:50;30.87;;;17.40;;
24635;SDS011;12772;49.794;10.024;2022-12-18T07:43:52;30.97;;;19.77;;
24635;SDS011;12772;49.794;10.024;2022-12-18T07:47:54;29.03;;;18.60;;
24635;SDS011;12772;49.794;10.024;2022-12-18T07:51:56;28.77;;;17.40;;
24635;SDS011;12772;49.794;10.024;2022-12-18T07:56:06;31.17;;;18.33;;
24635;SDS011;12772;49.794;10.024;2022-12-18T08:00:12;29.37;;;18.13;;
24635;SDS011;12772;49.794;10.024;2022-12-18T08:04:14;28.23;;;17.57;;
24635;SDS011;12772;49.794;10.024;2022-12-18T08:08:17;30.40;;;17.50;;
24635;SDS011;12772;49.794;10.024;2022-12-18T08:12:19;28.10;;;16.43;;
24635;SDS011;12772;49.794;10.024;2022-12-18T08:16:21;33.23;;;18.73;;
24635;SDS011;12772;49.794;10.024;2022-12-18T08:20:24;31.47;;;18.27;;
24635;SDS011;12772;49.794;10.024;2022-12-18T08:24:26;31.03;;;17.33;;
24635;SDS011;12772;49.794;10.024;2022-12-18T08:28:28;31.53;;;17.80;;
24635;SDS011;12772;49.794;10.024;2022-12-18T08:32:30;29.87;;;17.40;;
24635;SDS011;12772;49.794;10.024;2022-12-18T08:36:33;32.63;;;18.97;;
24635;SDS011;12772;49.794;10.024;2022-12-18T08:40:35;41.73;;;21.20;;
24635;SDS011;12772;49.794;10.024;2022-12-18T08:44:37;41.33;;;20.97;;
24635;SDS011;12772;49.794;10.024;2022-12-18T08:48:39;41.70;;;21.13;;
24635;SDS011;12772;49.794;10.024;2022-12-18T08:52:41;39.00;;;21.23;;
24635;SDS011;12772;49.794;10.024;2022-12-18T08:56:43;38.00;;;20.37;;
24635;SDS011;12772;49.794;10.024;2022-12-18T09:00:45;35.57;;;18.97;;
24635;SDS011;12772;49.794;10.024;2022-12-18T09:04:47;39.97;;;20.33;;
24635;SDS011;12772;49.794;10.024;2022-12-18T09:08:49;38.00;;;20.23;;
24635;SDS011;12772;49.794;10.024;2022-12-18T09:12:51;42.17;;;21.00;;
24635;SDS011;12772;49.794;10.024;2022-12-18T09:16:54;42.40;;;21.93;;
24635;SDS011;12772;49.794;10.024;2022-12-18T09:20:56;47.50;;;26.50;;
24635;SDS011;12772;49.794;10.024;2022-12-18T09:24:58;37.53;;;20.97;;
24635;SDS011;12772;49.794;10.024;2022-12-18T09:29:00;39.10;;;19.97;;
24635;SDS011;12772;49.794;10.024;2022-12-18T09:33:03;34.43;;;18.90;;
24635;SDS011;12772;49.794;10.024;2022-12-18T09:37:05;42.73;;;22.97;;
24635;SDS011;12772;49.794;10.024;2022-12-18T09:46:09;38.23;;;20.03;;
24635;SDS011;12772;49.794;10.024;2022-12-18T09:54:47;35.63;;;18.97;;
24635;SDS011;12772;49.794;10.024;2022-12-18T09:59:00;41.00;;;20.33;;
24635;SDS011;12772;49.794;10.024;2022-12-18T10:03:11;37.33;;;20.07;;
24635;SDS011;12772;49.794;10.024;2022-12-18T10:20:32;34.70;;;18.97;;
24635;SDS011;12772;49.794;10.024;2022-12-18T10:25:09;38.07;;;19.07;;
24635;SDS011;12772;49.794;10.024;2022-12-18T10:29:24;37.17;;;20.03;;
24635;SDS011;12772;49.794;10.024;2022-12-18T10:33:29;38.57;;;19.77;;
24635;SDS011;12772;49.794;10.024;2022-12-18T10:37:32;36.43;;;19.47;;
24635;SDS011;12772;49.794;10.024;2022-12-18T10:41:34;32.50;;;18.20;;
24635;SDS011;12772;49.794;10.024;2022-12-18T10:45:36;35.17;;;17.67;;
24635;SDS011;12772;49.794;10.024;2022-12-18T10:49:38;30.73;;;16.93;;
24635;SDS011;12772;49.794;10.024;2022-12-18T10:53:56;36.30;;;19.67;;
24635;SDS011;12772;49.794;10.024;2022-12-18T10:58:44;33.73;;;18.10;;
24635;SDS011;12772;49.794;10.024;2022-12-18T11:02:36;35.30;;;19.13;;
24635;SDS011;12772;49.794;10.024;2022-12-18T11:06:52;37.00;;;18.43;;
24635;SDS011;12772;49.794;10.024;2022-12-18T11:10:56;26.20;;;16.37;;
24635;SDS011;12772;49.794;10.024;2022-12-18T11:15:00;27.97;;;16.93;;
24635;SDS011;12772;49.794;10.024;2022-12-18T11:19:37;25.67;;;15.20;;
24635;SDS011;12772;49.794;10.024;2022-12-18T11:23:36;27.10;;;15.73;;
24635;SDS011;12772;49.794;10.024;2022-12-18T11:27:53;26.63;;;15.73;;
24635;SDS011;12772;49.794;10.024;2022-12-18T11:36:25;25.40;;;14.30;;
24635;SDS011;12772;49.794;10.024;2022-12-18T11:40:35;23.90;;;13.30;;
24635;SDS011;12772;49.794;10.024;2022-12-18T11:44:51;20.40;;;13.70;;
24635;SDS011;12772;49.794;10.024;2022-12-18T11:49:06;23.80;;;13.77;;
24635;SDS011;12772;49.794;10.024;2022-12-18T11:53:13;22.07;;;12.80;;
24635;SDS011;12772;49.794;10.024;2022-12-18T12:14:27;22.17;;;13.37;;
24635;SDS011;12772;49.794;10.024;2022-12-18T12:18:40;21.80;;;13.23;;
24635;SDS011;12772;49.794;10.024;2022-12-18T12:22:56;20.00;;;11.67;;
24635;SDS011;12772;49.794;10.024;2022-12-18T12:40:16;19.13;;;12.30;;
24635;SDS011;12772;49.794;10.024;2022-12-18T12:44:47;22.30;;;12.63;;
24635;SDS011;12772;49.794;10.024;2022-12-18T12:48:56;20.03;;;12.47;;
24635;SDS011;12772;49.794;10.024;2022-12-18T12:53:05;23.57;;;13.80;;
24635;SDS011;12772;49.794;10.024;2022-12-18T12:57:20;19.33;;;12.47;;
24635;SDS011;12772;49.794;10.024;2022-12-18T13:01:34;23.23;;;13.57;;
24635;SDS011;12772;49.794;10.024;2022-12-18T13:05:49;17.70;;;11.43;;
24635;SDS011;12772;49.794;10.024;2022-12-18T13:14:27;17.27;;;11.70;;
24635;SDS011;12772;49.794;10.024;2022-12-18T13:18:37;19.90;;;11.90;;
24635;SDS011;12772;49.794;10.024;2022-12-18T13:22:57;21.27;;;13.33;;
24635;SDS011;12772;49.794;10.024;2022-12-18T13:26:59;23.13;;;12.83;;
24635;SDS011;12772;49.794;10.024;2022-12-18T13:31:01;19.27;;;12.47;;
24635;SDS011;12772;49.794;10.024;2022-12-18T13:35:37;21.17;;;11.93;;
24635;SDS011;12772;49.794;10.024;2022-12-18T13:39:39;19.47;;;12.93;;
24635;SDS011;12772;49.794;10.024;2022-12-18T13:43:44;19.37;;;13.37;;
24635;SDS011;12772;49.794;10.024;2022-12-18T13:47:47;23.30;;;13.73;;
24635;SDS011;12772;49.794;10.024;2022-12-18T13:51:53;23.70;;;13.57;;
24635;SDS011;12772;49.794;10.024;2022-12-18T13:55:56;23.40;;;13.90;;
24635;SDS011;12772;49.794;10.024;2022-12-18T14:04:21;22.93;;;13.63;;
24635;SDS011;12772;49.794;10.024;2022-12-18T14:08:27;19.50;;;12.83;;
24635;SDS011;12772;49.794;10.024;2022-12-18T14:12:34;22.70;;;13.90;;
24635;SDS011;12772;49.794;10.024;2022-12-18T14:16:54;23.17;;;13.93;;
24635;SDS011;12772;49.794;10.024;2022-12-18T14:20:58;21.70;;;13.23;;
24635;SDS011;12772;49.794;10.024;2022-12-18T14:25:10;23.70;;;13.90;;
24635;SDS011;12772;49.794;10.024;2022-12-18T14:29:27;23.47;;;14.27;;
24635;SDS011;12772;49.794;10.024;2022-12-18T14:33:30;25.30;;;13.67;;
24635;SDS011;12772;49.794;10.024;2022-12-18T14:37:32;22.90;;;14.57;;
24635;SDS011;12772;49.794;10.024;2022-12-18T14:41:34;21.10;;;13.37;;
24635;SDS011;12772;49.794;10.024;2022-12-18T14:45:39;19.90;;;11.97;;
24635;SDS011;12772;49.794;10.024;2022-12-18T14:49:43;24.17;;;14.67;;
24635;SDS011;12772;49.794;10.024;2022-12-18T14:53:46;23.80;;;14.30;;
24635;SDS011;12772;49.794;10.024;2022-12-18T14:57:50;22.80;;;12.73;;
24635;SDS011;12772;49.794;10.024;2022-12-18T15:06:15;21.07;;;13.13;;
24635;SDS011;12772;49.794;10.024;2022-12-18T15:18:41;21.40;;;14.10;;
24635;SDS011;12772;49.794;10.024;2022-12-18T15:22:45;24.13;;;14.23;;
24635;SDS011;12772;49.794;10.024;2022-12-18T15:26:49;25.13;;;15.27;;
24635;SDS011;12772;49.794;10.024;2022-12-18T15:30:58;23.33;;;14.30;;
24635;SDS011;12772;49.794;10.024;2022-12-18T15:35:24;26.33;;;15.23;;
24635;SDS011;12772;49.794;10.024;2022-12-18T15:39:26;23.60;;;14.67;;
24635;SDS011;12772;49.794;10.024;2022-12-18T15:43:28;23.30;;;14.93;;
24635;SDS011;12772;49.794;10.024;2022-12-18T15:47:37;22.73;;;13.23;;
24635;SDS011;12772;49.794;10.024;2022-12-18T15:51:39;21.90;;;14.03;;
24635;SDS011;12772;49.794;10.024;2022-12-18T15:55:41;27.50;;;15.30;;
24635;SDS011;12772;49.794;10.024;2022-12-18T16:00:00;23.53;;;14.63;;
24635;SDS011;12772;49.794;10.024;2022-12-18T16:04:02;27.07;;;15.50;;
24635;SDS011;12772;49.794;10.024;2022-12-18T16:08:04;22.27;;;13.97;;
24635;SDS011;12772;49.794;10.024;2022-12-18T16:12:11;23.90;;;14.20;;
24635;SDS011;12772;49.794;10.024;2022-12-18T16:16:17;22.20;;;14.63;;
24635;SDS011;12772;49.794;10.024;2022-12-18T16:20:20;28.63;;;16.13;;
24635;SDS011;12772;49.794;10.024;2022-12-18T16:24:24;26.57;;;15.43;;
24635;SDS011;12772;49.794;10.024;2022-12-18T16:28:28;27.10;;;16.93;;
24635;SDS011;12772;49.794;10.024;2022-12-18T16:32:30;31.47;;;18.43;;
24635;SDS011;12772;49.794;10.024;2022-12-18T16:36:32;35.27;;;20.10;;
24635;SDS011;12772;49.794;10.024;2022-12-18T16:40:34;30.80;;;18.03;;
24635;SDS011;12772;49.794;10.024;2022-12-18T16:44:56;23.67;;;14.27;;
24635;SDS011;12772;49.794;10.024;2022-12-18T16:48:58;28.07;;;16.00;;
24635;SDS011;12772;49.794;10.024;2022-12-18T16:53:00;28.43;;;16.90;;
24635;SDS011;12772;49.794;10.024;2022-12-18T16:57:03;30.47;;;17.60;;
24635;SDS011;12772;49.794;10.024;2022-12-18T17:01:09;43.40;;;25.13;;
24635;SDS011;12772;49.794;10.024;2022-12-18T17:05:11;35.70;;;20.87;;
24635;SDS011;12772;49.794;10.024;2022-12-18T17:09:14;28.50;;;17.70;;
24635;SDS011;12772;49.794;10.024;2022-12-18T17:13:17;28.63;;;17.93;;
24635;SDS011;12772;49.794;10.024;2022-12-18T17:17:22;28.40;;;16.90;;
24635;SDS011;12772;49.794;10.024;2022-12-18T17:21:24;25.00;;;16.73;;
24635;SDS011;12772;49.794;10.024;2022-12-18T17:25:26;26.70;;;16.23;;
24635;SDS011;12772;49.794;10.024;2022-12-18T17:29:28;26.93;;;16.30;;
24635;SDS011;12772;49.794;10.024;2022-12-18T17:33:31;26.47;;;16.00;;
24635;SDS011;12772;49.794;10.024;2022-12-18T17:37:33;27.37;;;16.30;;
24635;SDS011;12772;49.794;10.024;2022-12-18T17:41:35;27.53;;;15.90;;
24635;SDS011;12772;49.794;10.024;2022-12-18T17:45:37;27.73;;;16.63;;
24635;SDS011;12772;49.794;10.024;2022-12-18T17:49:40;25.93;;;16.00;;
24635;SDS011;12772;49.794;10.024;2022-12-18T17:53:43;28.93;;;17.47;;
24635;SDS011;12772;49.794;10.024;2022-12-18T17:57:45;24.37;;;15.93;;
24635;SDS011;12772;49.794;10.024;2022-12-18T18:01:47;29.13;;;18.53;;
24635;SDS011;12772;49.794;10.024;2022-12-18T18:05:55;24.67;;;16.37;;
24635;SDS011;12772;49.794;10.024;2022-12-18T18:09:58;31.03;;;19.43;;
24635;SDS011;12772;49.794;10.024;2022-12-18T18:14:01;25.00;;;16.23;;
24635;SDS011;12772;49.794;10.024;2022-12-18T18:18:04;24.77;;;16.30;;
24635;SDS011;12772;49.794;10.024;2022-12-18T18:22:06;26.43;;;15.67;;
24635;SDS011;12772;49.794;10.024;2022-12-18T18:26:08;27.17;;;15.67;;
24635;SDS011;12772;49.794;10.024;2022-12-18T18:30:11;24.17;;;15.73;;
24635;SDS011;12772;49.794;10.024;2022-12-18T18:34:14;24.53;;;15.97;;
24635;SDS011;12772;49.794;10.024;2022-12-18T18:38:17;25.20;;;16.43;;
24635;SDS011;12772;49.794;10.024;2022-12-18T18:42:19;29.57;;;16.73;;
24635;SDS011;12772;49.794;10.024;2022-12-18T18:46:21;32.17;;;18.27;;
24635;SDS011;12772;49.794;10.024;2022-12-18T18:50:24;28.57;;;17.63;;
24635;SDS011;12772;49.794;10.024;2022-12-18T18:54:27;28.87;;;17.03;;
24635;SDS011;12772;49.794;10.024;2022-12-18T18:58:30;26.87;;;16.67;;
24635;SDS011;12772;49.794;10.024;2022-12-18T19:02:32;25.13;;;15.63;;
24635;SDS011;12772;49.794;10.024;2022-12-18T19:06:34;25.40;;;16.30;;
24635;SDS011;12772;49.794;10.024;2022-12-18T19:10:38;27.43;;;16.80;;
24635;SDS011;12772;49.794;10.024;2022-12-18T19:14:44;31.30;;;19.43;;
24635;SDS011;12772;49.794;10.024;2022-12-18T19:18:46;31.07;;;18.73;;
24635;SDS011;12772;49.794;10.024;2022-12-18T19:22:49;30.77;;;18.73;;
24635;SDS011;12772;49.794;10.024;2022-12-18T19:26:51;28.90;;;18.20;;
24635;SDS011;12772;49.794;10.024;2022-12-18T19:30:54;34.17;;;20.57;;
24635;SDS011;12772;49.794;10.024;2022-12-18T19:34:59;32.57;;;19.30;;
24635;SDS011;12772;49.794;10.024;2022-12-18T19:39:06;29.63;;;17.10;;
24635;SDS011;12772;49.794;10.024;2022-12-18T19:43:13;28.87;;;18.20;;
24635;SDS011;12772;49.794;10.024;2022-12-18T19:47:16;27.43;;;17.20;;
24635;SDS011;12772;49.794;10.024;2022-12-18T19:51:25;31.10;;;18.73;;
24635;SDS011;12772;49.794;10.024;2022-12-18T19:55:29;26.40;;;16.97;;
24635;SDS011;12772;49.794;10.024;2022-12-18T19:59:31;25.20;;;15.90;;
24635;SDS011;12772;49.794;10.024;2022-12-18T20:03:33;29.60;;;16.90;;
24635;SDS011;12772;49.794;10.024;2022-12-18T20:07:35;31.47;;;19.27;;
24635;SDS011;12772;49.794;10.024;2022-12-18T20:11:37;29.03;;;18.47;;
24635;SDS011;12772;49.794;10.024;2022-12-18T20:15:39;29.27;;;19.43;;
24635;SDS011;12772;49.794;10.024;2022-12-18T20:19:41;29.20;;;17.37;;
24635;SDS011;12772;49.794;10.024;2022-12-18T20:23:44;32.67;;;19.53;;
24635;SDS011;12772;49.794;10.024;2022-12-18T20:27:46;30.50;;;18.33;;
24635;SDS011;12772;49.794;10.024;2022-12-18T20:31:49;27.83;;;17.53;;
24635;SDS011;12772;49.794;10.024;2022-12-18T20:35:51;29.93;;;18.93;;
24635;SDS011;12772;49.794;10.024;2022-12-18T20:39:53;27.03;;;17.77;;
24635;SDS011;12772;49.794;10.024;2022-12-18T20:43:55;35.67;;;20.20;;
24635;SDS011;12772;49.794;10.024;2022-12-18T20:47:57;29.37;;;18.10;;
24635;SDS011;12772;49.794;10.024;2022-12-18T20:52:01;34.33;;;21.60;;
24635;SDS011;12772;49.794;10.024;2022-12-18T20:56:07;34.40;;;19.97;;
24635;SDS011;12772;49.794;10.024;2022-12-18T21:00:10;30.40;;;19.10;;
24635;SDS011;12772;49.794;10.024;2022-12-18T21:04:13;29.83;;;18.00;;
24635;SDS011;12772;49.794;10.024;2022-12-18T21:08:15;32.60;;;20.23;;
24635;SDS011;12772;49.794;10.024;2022-12-18T21:12:17;34.00;;;19.87;;
24635;SDS011;12772;49.794;10.024;2022-12-18T21:16:33;31.03;;;19.07;;
24635;SDS011;12772;49.794;10.024;2022-12-18T21:20:35;30.93;;;19.97;;
24635;SDS011;12772;49.794;10.024;2022-12-18T21:24:37;32.60;;;18.20;;
24635;SDS011;12772;49.794;10.024;2022-12-18T21:28:39;31.00;;;18.97;;
24635;SDS011;12772;49.794;10.024;2022-12-18T21:32:41;32.47;;;18.63;;
24635;SDS011;12772;49.794;10.024;2022-12-18T21:36:43;31.83;;;18.90;;
24635;SDS011;12772;49.794;10.024;2022-12-18T21:40:45;30.77;;;18.77;;
24635;SDS011;12772;49.794;10.024;2022-12-18T21:44:47;35.60;;;18.97;;
24635;SDS011;12772;49.794;10.024;2022-12-18T21:48:49;29.77;;;18.63;;
24635;SDS011;12772;49.794;10.024;2022-12-18T21:52:51;34.50;;;19.60;;
24635;SDS011;12772;49.794;10.024;2022-12-18T21:56:57;31.67;;;19.60;;
24635;SDS011;12772;49.794;10.024;2022-12-18T22:01:04;30.57;;;19.13;;
24635;SDS011;12772;49.794;10.024;2022-12-18T22:05:06;36.63;;;22.57;;
24635;SDS011;12772;49.794;10.024;2022-12-18T22:09:10;34.43;;;21.73;;
24635;SDS011;12772;49.794;10.024;2022-12-18T22:13:14;32.70;;;20.27;;
24635;SDS011;12772;49.794;10.024;2022-12-18T22:17:16;29.53;;;18.83;;
24635;SDS011;12772;49.794;10.024;2022-12-18T22:21:20;31.47;;;19.43;;
24635;SDS011;12772;49.794;10.024;2022-12-18T22:25:24;34.90;;;20.53;;
24635;SDS011;12772;49.794;10.024;2022-12-18T22:29:26;28.43;;;18.33;;
24635;SDS011;12772;49.794;10.024;2022-12-18T22:33:54;28.73;;;18.23;;
24635;SDS011;12772;49.794;10.024;2022-12-18T22:37:59;30.97;;;20.33;;
24635;SDS011;12772;49.794;10.024;2022-12-18T22:42:01;27.57;;;17.80;;
24635;SDS011;12772;49.794;10.024;2022-12-18T22:46:03;28.97;;;19.30;;
24635;SDS011;12772;49.794;10.024;2022-12-18T22:50:05;26.57;;;17.20;;
24635;SDS011;12772;49.794;10.024;2022-12-18T22:54:08;26.80;;;17.87;;
24635;SDS011;12772;49.794;10.024;2022-12-18T22:58:10;29.37;;;18.53;;
24635;SDS011;12772;49.794;10.024;2022-12-18T23:02:12;29.77;;;19.13;;
24635;SDS011;12772;49.794;10.024;2022-12-18T23:06:15;30.63;;;19.80;;
24635;SDS011;12772;49.794;10.024;2022-12-18T23:10:17;32.00;;;18.63;;
24635;SDS011;12772;49.794;10.024;2022-12-18T23:14:19;30.77;;;18.97;;
24635;SDS011;12772;49.794;10.024;2022-12-18T23:18:21;27.37;;;17.77;;
24635;SDS011;12772;49.794;10.024;2022-12-18T23:22:23;26.47;;;17.17;;
24635;SDS011;12772;49.794;10.024;2022-12-18T23:26:27;25.97;;;17.20;;
24635;SDS011;12772;49.794;10.024;2022-12-18T23:30:30;31.10;;;18.63;;
24635;SDS011;12772;49.794;10.024;2022-12-18T23:34:32;31.13;;;19.77;;
24635;SDS011;12772;49.794;10.024;2022-12-18T23:38:34;26.13;;;18.07;;
24635;SDS011;12772;49.794;10.024;2022-12-18T23:42:36;32.97;;;20.27;;
24635;SDS011;12772;49.794;10.024;2022-12-18T23:46:38;30.23;;;19.33;;
24635;SDS011;12772;49.794;10.024;2022-12-18T23:50:40;31.13;;;18.47;;
24635;SDS011;12772;49.794;10.024;2022-12-18T23:54:42;29.57;;;19.27;;
24635;SDS011;12772;49.794;10.024;2022-12-18T23:58:46;29.70;;;18.63;;
